sensor_id;sensor_type;location;lat;lon;timestamp;P1;durP1;ratioP1;P2;durP2;ratioP2
25073;SDS011;13066;52.042;5.648;2024-03-02T00:00:34;3.75;;;2.45;;
25073;SDS011;13066;52.042;5.648;2024-03-02T00:03:03;4.03;;;2.38;;
25073;SDS011;13066;52.042;5.648;2024-03-02T00:05:31;5.40;;;2.33;;
25073;SDS011;13066;52.042;5.648;2024-03-02T00:07:59;4.20;;;2.28;;
25073;SDS011;13066;52.042;5.648;2024-03-02T00:10:31;3.20;;;1.80;;
25073;SDS011;13066;52.042;5.648;2024-03-02T00:13:03;2.55;;;1.83;;
25073;SDS011;13066;52.042;5.648;2024-03-02T00:15:45;3.97;;;2.30;;
25073;SDS011;13066;52.042;5.648;2024-03-02T00:18:16;2.95;;;1.85;;
25073;SDS011;13066;52.042;5.648;2024-03-02T00:20:46;2.88;;;1.60;;
25073;SDS011;13066;52.042;5.648;2024-03-02T00:23:15;3.53;;;1.70;;
25073;SDS011;13066;52.042;5.648;2024-03-02T00:25:44;2.72;;;1.60;;
25073;SDS011;13066;52.042;5.648;2024-03-02T00:28:13;2.45;;;1.60;;
25073;SDS011;13066;52.042;5.648;2024-03-02T00:33:35;3.03;;;1.50;;
25073;SDS011;13066;52.042;5.648;2024-03-02T00:36:04;3.08;;;1.35;;
25073;SDS011;13066;52.042;5.648;2024-03-02T00:38:33;3.40;;;1.75;;
25073;SDS011;13066;52.042;5.648;2024-03-02T00:41:04;3.08;;;1.77;;
25073;SDS011;13066;52.042;5.648;2024-03-02T00:43:44;2.55;;;1.67;;
25073;SDS011;13066;52.042;5.648;2024-03-02T00:46:17;2.90;;;1.85;;
25073;SDS011;13066;52.042;5.648;2024-03-02T00:48:53;3.10;;;1.60;;
25073;SDS011;13066;52.042;5.648;2024-03-02T00:51:23;3.05;;;1.85;;
25073;SDS011;13066;52.042;5.648;2024-03-02T00:53:52;3.38;;;1.65;;
25073;SDS011;13066;52.042;5.648;2024-03-02T00:56:23;4.22;;;1.85;;
25073;SDS011;13066;52.042;5.648;2024-03-02T00:58:52;4.05;;;1.70;;
25073;SDS011;13066;52.042;5.648;2024-03-02T01:01:22;3.10;;;1.63;;
25073;SDS011;13066;52.042;5.648;2024-03-02T01:03:50;3.58;;;1.30;;
25073;SDS011;13066;52.042;5.648;2024-03-02T01:06:19;4.60;;;1.70;;
25073;SDS011;13066;52.042;5.648;2024-03-02T01:08:47;2.83;;;1.27;;
25073;SDS011;13066;52.042;5.648;2024-03-02T01:11:18;1.52;;;1.20;;
25073;SDS011;13066;52.042;5.648;2024-03-02T01:13:49;1.35;;;1.13;;
25073;SDS011;13066;52.042;5.648;2024-03-02T01:16:18;2.17;;;1.00;;
25073;SDS011;13066;52.042;5.648;2024-03-02T01:18:48;1.23;;;0.73;;
25073;SDS011;13066;52.042;5.648;2024-03-02T01:21:17;1.35;;;0.73;;
25073;SDS011;13066;52.042;5.648;2024-03-02T01:23:45;0.65;;;0.63;;
25073;SDS011;13066;52.042;5.648;2024-03-02T01:26:13;1.02;;;0.82;;
25073;SDS011;13066;52.042;5.648;2024-03-02T01:28:41;1.10;;;1.00;;
25073;SDS011;13066;52.042;5.648;2024-03-02T01:31:09;1.05;;;0.80;;
25073;SDS011;13066;52.042;5.648;2024-03-02T01:33:37;0.85;;;0.60;;
25073;SDS011;13066;52.042;5.648;2024-03-02T01:36:07;2.05;;;0.70;;
25073;SDS011;13066;52.042;5.648;2024-03-02T01:38:35;0.60;;;0.60;;
25073;SDS011;13066;52.042;5.648;2024-03-02T01:41:03;0.85;;;0.75;;
25073;SDS011;13066;52.042;5.648;2024-03-02T01:43:31;0.98;;;0.68;;
25073;SDS011;13066;52.042;5.648;2024-03-02T01:46:00;0.82;;;0.73;;
25073;SDS011;13066;52.042;5.648;2024-03-02T01:48:28;0.57;;;0.57;;
25073;SDS011;13066;52.042;5.648;2024-03-02T01:50:56;0.75;;;0.68;;
25073;SDS011;13066;52.042;5.648;2024-03-02T01:53:25;0.95;;;0.50;;
25073;SDS011;13066;52.042;5.648;2024-03-02T01:55:56;0.85;;;0.60;;
25073;SDS011;13066;52.042;5.648;2024-03-02T01:58:24;0.70;;;0.70;;
25073;SDS011;13066;52.042;5.648;2024-03-02T02:00:52;1.00;;;0.75;;
25073;SDS011;13066;52.042;5.648;2024-03-02T02:03:20;1.58;;;0.60;;
25073;SDS011;13066;52.042;5.648;2024-03-02T02:05:48;0.63;;;0.60;;
25073;SDS011;13066;52.042;5.648;2024-03-02T02:08:16;1.10;;;0.65;;
25073;SDS011;13066;52.042;5.648;2024-03-02T02:10:46;1.25;;;0.63;;
25073;SDS011;13066;52.042;5.648;2024-03-02T02:13:14;0.77;;;0.55;;
25073;SDS011;13066;52.042;5.648;2024-03-02T02:15:42;0.90;;;0.60;;
25073;SDS011;13066;52.042;5.648;2024-03-02T02:18:10;0.50;;;0.50;;
25073;SDS011;13066;52.042;5.648;2024-03-02T02:20:38;0.63;;;0.63;;
25073;SDS011;13066;52.042;5.648;2024-03-02T02:23:08;1.10;;;0.75;;
25073;SDS011;13066;52.042;5.648;2024-03-02T02:25:36;0.52;;;0.52;;
25073;SDS011;13066;52.042;5.648;2024-03-02T02:28:05;1.25;;;0.73;;
25073;SDS011;13066;52.042;5.648;2024-03-02T02:30:33;1.13;;;0.82;;
25073;SDS011;13066;52.042;5.648;2024-03-02T02:33:01;0.70;;;0.68;;
25073;SDS011;13066;52.042;5.648;2024-03-02T02:35:30;1.05;;;0.70;;
25073;SDS011;13066;52.042;5.648;2024-03-02T02:37:58;0.65;;;0.65;;
25073;SDS011;13066;52.042;5.648;2024-03-02T02:40:29;1.05;;;0.73;;
25073;SDS011;13066;52.042;5.648;2024-03-02T02:42:57;0.60;;;0.50;;
25073;SDS011;13066;52.042;5.648;2024-03-02T02:45:26;0.90;;;0.55;;
25073;SDS011;13066;52.042;5.648;2024-03-02T02:47:54;1.38;;;0.70;;
25073;SDS011;13066;52.042;5.648;2024-03-02T02:50:22;1.40;;;0.70;;
25073;SDS011;13066;52.042;5.648;2024-03-02T02:52:50;1.40;;;0.90;;
25073;SDS011;13066;52.042;5.648;2024-03-02T02:55:18;0.93;;;0.82;;
25073;SDS011;13066;52.042;5.648;2024-03-02T02:57:48;1.85;;;1.17;;
25073;SDS011;13066;52.042;5.648;2024-03-02T03:00:16;1.20;;;0.90;;
25073;SDS011;13066;52.042;5.648;2024-03-02T03:02:47;0.68;;;0.68;;
25073;SDS011;13066;52.042;5.648;2024-03-02T03:05:17;0.80;;;0.77;;
25073;SDS011;13066;52.042;5.648;2024-03-02T03:07:46;1.00;;;0.70;;
25073;SDS011;13066;52.042;5.648;2024-03-02T03:10:17;0.90;;;0.73;;
25073;SDS011;13066;52.042;5.648;2024-03-02T03:12:44;1.38;;;0.80;;
25073;SDS011;13066;52.042;5.648;2024-03-02T03:15:13;1.08;;;0.70;;
25073;SDS011;13066;52.042;5.648;2024-03-02T03:17:43;1.88;;;0.80;;
25073;SDS011;13066;52.042;5.648;2024-03-02T03:20:12;1.67;;;0.85;;
25073;SDS011;13066;52.042;5.648;2024-03-02T03:22:42;0.95;;;0.57;;
25073;SDS011;13066;52.042;5.648;2024-03-02T03:25:10;0.95;;;0.63;;
25073;SDS011;13066;52.042;5.648;2024-03-02T03:27:39;1.63;;;0.68;;
25073;SDS011;13066;52.042;5.648;2024-03-02T03:30:08;1.00;;;0.70;;
25073;SDS011;13066;52.042;5.648;2024-03-02T03:32:39;1.20;;;0.93;;
25073;SDS011;13066;52.042;5.648;2024-03-02T03:35:07;1.75;;;1.13;;
25073;SDS011;13066;52.042;5.648;2024-03-02T03:37:36;1.00;;;0.80;;
25073;SDS011;13066;52.042;5.648;2024-03-02T03:40:05;1.48;;;1.00;;
25073;SDS011;13066;52.042;5.648;2024-03-02T03:42:37;1.33;;;0.63;;
25073;SDS011;13066;52.042;5.648;2024-03-02T03:45:06;0.65;;;0.65;;
25073;SDS011;13066;52.042;5.648;2024-03-02T03:47:35;1.25;;;0.85;;
25073;SDS011;13066;52.042;5.648;2024-03-02T03:50:06;1.80;;;0.70;;
25073;SDS011;13066;52.042;5.648;2024-03-02T03:52:34;0.50;;;0.50;;
25073;SDS011;13066;52.042;5.648;2024-03-02T03:55:03;0.65;;;0.65;;
25073;SDS011;13066;52.042;5.648;2024-03-02T03:57:32;0.52;;;0.52;;
25073;SDS011;13066;52.042;5.648;2024-03-02T04:00:01;1.13;;;0.80;;
25073;SDS011;13066;52.042;5.648;2024-03-02T04:02:37;1.23;;;0.70;;
25073;SDS011;13066;52.042;5.648;2024-03-02T04:05:07;0.80;;;0.55;;
25073;SDS011;13066;52.042;5.648;2024-03-02T04:07:38;1.83;;;0.65;;
25073;SDS011;13066;52.042;5.648;2024-03-02T04:10:08;0.57;;;0.57;;
25073;SDS011;13066;52.042;5.648;2024-03-02T04:12:36;2.00;;;0.60;;
25073;SDS011;13066;52.042;5.648;2024-03-02T04:15:04;1.38;;;0.70;;
25073;SDS011;13066;52.042;5.648;2024-03-02T04:17:33;2.03;;;0.88;;
25073;SDS011;13066;52.042;5.648;2024-03-02T04:20:02;1.25;;;0.60;;
25073;SDS011;13066;52.042;5.648;2024-03-02T04:22:34;0.60;;;0.60;;
25073;SDS011;13066;52.042;5.648;2024-03-02T04:25:02;1.13;;;0.60;;
25073;SDS011;13066;52.042;5.648;2024-03-02T04:27:31;2.92;;;0.82;;
25073;SDS011;13066;52.042;5.648;2024-03-02T04:30:00;1.38;;;0.60;;
25073;SDS011;13066;52.042;5.648;2024-03-02T04:32:28;1.05;;;0.50;;
25073;SDS011;13066;52.042;5.648;2024-03-02T04:34:56;0.60;;;0.60;;
25073;SDS011;13066;52.042;5.648;2024-03-02T04:37:25;2.85;;;0.80;;
25073;SDS011;13066;52.042;5.648;2024-03-02T04:39:54;0.80;;;0.80;;
25073;SDS011;13066;52.042;5.648;2024-03-02T04:42:22;1.23;;;0.80;;
25073;SDS011;13066;52.042;5.648;2024-03-02T04:44:51;0.65;;;0.63;;
25073;SDS011;13066;52.042;5.648;2024-03-02T04:47:19;1.88;;;0.98;;
25073;SDS011;13066;52.042;5.648;2024-03-02T04:49:47;0.60;;;0.60;;
25073;SDS011;13066;52.042;5.648;2024-03-02T04:52:15;1.73;;;0.70;;
25073;SDS011;13066;52.042;5.648;2024-03-02T04:54:43;3.05;;;0.80;;
25073;SDS011;13066;52.042;5.648;2024-03-02T04:57:27;1.30;;;0.88;;
25073;SDS011;13066;52.042;5.648;2024-03-02T04:59:55;1.90;;;0.80;;
25073;SDS011;13066;52.042;5.648;2024-03-02T05:02:23;1.75;;;0.77;;
25073;SDS011;13066;52.042;5.648;2024-03-02T05:04:51;0.70;;;0.60;;
25073;SDS011;13066;52.042;5.648;2024-03-02T05:07:19;1.30;;;0.77;;
25073;SDS011;13066;52.042;5.648;2024-03-02T05:09:47;1.40;;;0.77;;
25073;SDS011;13066;52.042;5.648;2024-03-02T05:12:15;1.17;;;0.80;;
25073;SDS011;13066;52.042;5.648;2024-03-02T05:15:03;1.95;;;0.80;;
25073;SDS011;13066;52.042;5.648;2024-03-02T05:17:35;1.50;;;0.80;;
25073;SDS011;13066;52.042;5.648;2024-03-02T05:20:04;0.98;;;0.65;;
25073;SDS011;13066;52.042;5.648;2024-03-02T05:22:34;1.00;;;0.60;;
25073;SDS011;13066;52.042;5.648;2024-03-02T05:25:03;1.17;;;0.60;;
25073;SDS011;13066;52.042;5.648;2024-03-02T05:27:32;2.70;;;0.93;;
25073;SDS011;13066;52.042;5.648;2024-03-02T05:30:03;2.13;;;0.73;;
25073;SDS011;13066;52.042;5.648;2024-03-02T05:32:33;1.00;;;0.80;;
25073;SDS011;13066;52.042;5.648;2024-03-02T05:35:02;0.85;;;0.70;;
25073;SDS011;13066;52.042;5.648;2024-03-02T05:37:31;1.42;;;0.70;;
25073;SDS011;13066;52.042;5.648;2024-03-02T05:40:00;1.10;;;0.95;;
25073;SDS011;13066;52.042;5.648;2024-03-02T05:42:29;1.45;;;0.82;;
25073;SDS011;13066;52.042;5.648;2024-03-02T05:44:57;0.85;;;0.80;;
25073;SDS011;13066;52.042;5.648;2024-03-02T05:47:26;1.55;;;0.82;;
25073;SDS011;13066;52.042;5.648;2024-03-02T05:49:55;0.95;;;0.65;;
25073;SDS011;13066;52.042;5.648;2024-03-02T05:52:23;0.70;;;0.70;;
25073;SDS011;13066;52.042;5.648;2024-03-02T05:54:51;0.85;;;0.70;;
25073;SDS011;13066;52.042;5.648;2024-03-02T05:57:19;1.40;;;0.80;;
25073;SDS011;13066;52.042;5.648;2024-03-02T06:00:00;1.65;;;0.85;;
25073;SDS011;13066;52.042;5.648;2024-03-02T06:02:40;0.75;;;0.60;;
25073;SDS011;13066;52.042;5.648;2024-03-02T06:05:08;0.88;;;0.68;;
25073;SDS011;13066;52.042;5.648;2024-03-02T06:07:36;1.30;;;0.98;;
25073;SDS011;13066;52.042;5.648;2024-03-02T06:10:04;1.95;;;0.82;;
25073;SDS011;13066;52.042;5.648;2024-03-02T06:12:37;1.98;;;0.85;;
25073;SDS011;13066;52.042;5.648;2024-03-02T06:15:06;1.80;;;1.05;;
25073;SDS011;13066;52.042;5.648;2024-03-02T06:17:34;0.98;;;0.65;;
25073;SDS011;13066;52.042;5.648;2024-03-02T06:20:04;2.28;;;1.08;;
25073;SDS011;13066;52.042;5.648;2024-03-02T06:22:35;1.33;;;1.00;;
25073;SDS011;13066;52.042;5.648;2024-03-02T06:25:03;1.95;;;0.85;;
25073;SDS011;13066;52.042;5.648;2024-03-02T06:27:32;1.63;;;0.80;;
25073;SDS011;13066;52.042;5.648;2024-03-02T06:30:00;2.83;;;0.90;;
25073;SDS011;13066;52.042;5.648;2024-03-02T06:32:28;1.42;;;1.00;;
25073;SDS011;13066;52.042;5.648;2024-03-02T06:34:57;1.40;;;0.80;;
25073;SDS011;13066;52.042;5.648;2024-03-02T06:37:27;1.02;;;0.73;;
25073;SDS011;13066;52.042;5.648;2024-03-02T06:39:55;2.20;;;0.95;;
25073;SDS011;13066;52.042;5.648;2024-03-02T06:42:24;2.10;;;0.90;;
25073;SDS011;13066;52.042;5.648;2024-03-02T06:44:52;3.55;;;0.93;;
25073;SDS011;13066;52.042;5.648;2024-03-02T06:47:20;2.17;;;1.00;;
25073;SDS011;13066;52.042;5.648;2024-03-02T06:49:48;1.48;;;0.82;;
25073;SDS011;13066;52.042;5.648;2024-03-02T06:52:17;3.35;;;0.90;;
25073;SDS011;13066;52.042;5.648;2024-03-02T06:54:50;1.85;;;0.90;;
25073;SDS011;13066;52.042;5.648;2024-03-02T06:57:18;2.25;;;0.80;;
25073;SDS011;13066;52.042;5.648;2024-03-02T06:59:47;1.63;;;0.90;;
25073;SDS011;13066;52.042;5.648;2024-03-02T07:02:17;1.30;;;0.77;;
25073;SDS011;13066;52.042;5.648;2024-03-02T07:04:45;1.77;;;1.00;;
25073;SDS011;13066;52.042;5.648;2024-03-02T07:07:14;1.77;;;1.00;;
25073;SDS011;13066;52.042;5.648;2024-03-02T07:09:42;1.75;;;1.02;;
25073;SDS011;13066;52.042;5.648;2024-03-02T07:12:11;2.00;;;0.80;;
25073;SDS011;13066;52.042;5.648;2024-03-02T07:14:40;1.13;;;0.90;;
25073;SDS011;13066;52.042;5.648;2024-03-02T07:17:38;2.33;;;0.90;;
25073;SDS011;13066;52.042;5.648;2024-03-02T07:20:07;2.15;;;1.13;;
25073;SDS011;13066;52.042;5.648;2024-03-02T07:22:36;2.35;;;0.88;;
25073;SDS011;13066;52.042;5.648;2024-03-02T07:25:09;2.33;;;0.90;;
25073;SDS011;13066;52.042;5.648;2024-03-02T07:27:59;1.40;;;0.90;;
25073;SDS011;13066;52.042;5.648;2024-03-02T07:30:27;2.40;;;0.93;;
25073;SDS011;13066;52.042;5.648;2024-03-02T07:32:58;2.80;;;1.10;;
25073;SDS011;13066;52.042;5.648;2024-03-02T07:35:26;4.07;;;1.30;;
25073;SDS011;13066;52.042;5.648;2024-03-02T07:37:55;2.50;;;1.00;;
25073;SDS011;13066;52.042;5.648;2024-03-02T07:40:23;2.47;;;1.10;;
25073;SDS011;13066;52.042;5.648;2024-03-02T07:42:51;1.85;;;1.02;;
25073;SDS011;13066;52.042;5.648;2024-03-02T07:45:21;2.75;;;1.10;;
25073;SDS011;13066;52.042;5.648;2024-03-02T07:47:49;1.88;;;0.95;;
25073;SDS011;13066;52.042;5.648;2024-03-02T07:50:18;2.35;;;1.30;;
25073;SDS011;13066;52.042;5.648;2024-03-02T07:52:46;1.60;;;1.17;;
25073;SDS011;13066;52.042;5.648;2024-03-02T07:55:14;1.75;;;0.90;;
25073;SDS011;13066;52.042;5.648;2024-03-02T07:57:43;2.80;;;1.13;;
25073;SDS011;13066;52.042;5.648;2024-03-02T08:00:11;2.72;;;1.27;;
25073;SDS011;13066;52.042;5.648;2024-03-02T08:02:46;1.20;;;0.88;;
25073;SDS011;13066;52.042;5.648;2024-03-02T08:05:14;3.47;;;1.20;;
25073;SDS011;13066;52.042;5.648;2024-03-02T08:07:43;3.33;;;1.30;;
25073;SDS011;13066;52.042;5.648;2024-03-02T08:10:11;2.60;;;1.58;;
25073;SDS011;13066;52.042;5.648;2024-03-02T08:12:40;3.45;;;2.05;;
25073;SDS011;13066;52.042;5.648;2024-03-02T08:15:08;3.47;;;1.50;;
25073;SDS011;13066;52.042;5.648;2024-03-02T08:17:36;3.05;;;1.58;;
25073;SDS011;13066;52.042;5.648;2024-03-02T08:20:07;2.50;;;1.27;;
25073;SDS011;13066;52.042;5.648;2024-03-02T08:22:35;2.00;;;1.02;;
25073;SDS011;13066;52.042;5.648;2024-03-02T08:25:03;2.53;;;1.20;;
25073;SDS011;13066;52.042;5.648;2024-03-02T08:27:32;3.55;;;1.30;;
25073;SDS011;13066;52.042;5.648;2024-03-02T08:30:01;3.80;;;1.10;;
25073;SDS011;13066;52.042;5.648;2024-03-02T08:35:28;2.55;;;1.00;;
25073;SDS011;13066;52.042;5.648;2024-03-02T08:37:58;2.92;;;1.38;;
25073;SDS011;13066;52.042;5.648;2024-03-02T08:40:28;7.30;;;1.90;;
25073;SDS011;13066;52.042;5.648;2024-03-02T08:42:56;2.90;;;1.48;;
25073;SDS011;13066;52.042;5.648;2024-03-02T08:45:24;3.33;;;1.52;;
25073;SDS011;13066;52.042;5.648;2024-03-02T08:47:53;4.32;;;1.30;;
25073;SDS011;13066;52.042;5.648;2024-03-02T08:50:21;2.17;;;1.10;;
25073;SDS011;13066;52.042;5.648;2024-03-02T08:52:50;2.83;;;1.20;;
25073;SDS011;13066;52.042;5.648;2024-03-02T08:55:18;3.45;;;1.13;;
25073;SDS011;13066;52.042;5.648;2024-03-02T08:57:46;2.53;;;1.15;;
25073;SDS011;13066;52.042;5.648;2024-03-02T09:00:17;2.95;;;1.20;;
25073;SDS011;13066;52.042;5.648;2024-03-02T09:02:45;2.53;;;1.42;;
25073;SDS011;13066;52.042;5.648;2024-03-02T09:05:13;6.68;;;3.78;;
25073;SDS011;13066;52.042;5.648;2024-03-02T09:07:42;4.55;;;2.00;;
25073;SDS011;13066;52.042;5.648;2024-03-02T09:10:11;2.97;;;1.42;;
25073;SDS011;13066;52.042;5.648;2024-03-02T09:12:39;3.03;;;1.30;;
25073;SDS011;13066;52.042;5.648;2024-03-02T09:15:08;4.20;;;1.60;;
25073;SDS011;13066;52.042;5.648;2024-03-02T09:17:36;5.03;;;1.42;;
25073;SDS011;13066;52.042;5.648;2024-03-02T09:20:05;3.75;;;1.58;;
25073;SDS011;13066;52.042;5.648;2024-03-02T09:22:33;4.38;;;1.45;;
25073;SDS011;13066;52.042;5.648;2024-03-02T09:25:01;3.17;;;1.58;;
25073;SDS011;13066;52.042;5.648;2024-03-02T09:27:31;6.38;;;2.25;;
25073;SDS011;13066;52.042;5.648;2024-03-02T09:29:59;4.55;;;1.77;;
25073;SDS011;13066;52.042;5.648;2024-03-02T09:32:28;4.85;;;2.17;;
25073;SDS011;13066;52.042;5.648;2024-03-02T09:34:56;4.53;;;1.92;;
25073;SDS011;13066;52.042;5.648;2024-03-02T09:37:24;4.22;;;1.77;;
25073;SDS011;13066;52.042;5.648;2024-03-02T09:39:53;3.80;;;1.48;;
25073;SDS011;13066;52.042;5.648;2024-03-02T09:42:21;5.22;;;2.08;;
25073;SDS011;13066;52.042;5.648;2024-03-02T09:44:51;4.60;;;2.00;;
25073;SDS011;13066;52.042;5.648;2024-03-02T09:47:19;2.55;;;1.30;;
25073;SDS011;13066;52.042;5.648;2024-03-02T09:49:48;2.53;;;1.52;;
25073;SDS011;13066;52.042;5.648;2024-03-02T09:52:16;2.80;;;1.65;;
25073;SDS011;13066;52.042;5.648;2024-03-02T09:54:44;2.38;;;1.63;;
25073;SDS011;13066;52.042;5.648;2024-03-02T09:57:15;2.85;;;1.48;;
25073;SDS011;13066;52.042;5.648;2024-03-02T09:59:43;4.65;;;1.90;;
25073;SDS011;13066;52.042;5.648;2024-03-02T10:02:13;3.53;;;1.75;;
25073;SDS011;13066;52.042;5.648;2024-03-02T10:04:41;2.95;;;1.45;;
25073;SDS011;13066;52.042;5.648;2024-03-02T10:07:12;5.68;;;1.92;;
25073;SDS011;13066;52.042;5.648;2024-03-02T10:09:41;3.22;;;1.40;;
25073;SDS011;13066;52.042;5.648;2024-03-02T10:12:10;4.30;;;1.60;;
25073;SDS011;13066;52.042;5.648;2024-03-02T10:14:40;4.50;;;1.55;;
25073;SDS011;13066;52.042;5.648;2024-03-02T10:17:09;4.25;;;1.50;;
25073;SDS011;13066;52.042;5.648;2024-03-02T10:19:39;4.88;;;1.55;;
25073;SDS011;13066;52.042;5.648;2024-03-02T10:22:08;2.10;;;1.30;;
25073;SDS011;13066;52.042;5.648;2024-03-02T10:24:37;4.43;;;1.45;;
25073;SDS011;13066;52.042;5.648;2024-03-02T10:27:07;2.65;;;1.42;;
25073;SDS011;13066;52.042;5.648;2024-03-02T10:29:37;3.20;;;1.20;;
25073;SDS011;13066;52.042;5.648;2024-03-02T10:32:08;3.95;;;1.52;;
25073;SDS011;13066;52.042;5.648;2024-03-02T10:34:40;3.60;;;1.40;;
25073;SDS011;13066;52.042;5.648;2024-03-02T10:37:10;4.75;;;1.50;;
25073;SDS011;13066;52.042;5.648;2024-03-02T10:39:39;4.60;;;1.30;;
25073;SDS011;13066;52.042;5.648;2024-03-02T10:42:08;3.60;;;1.30;;
25073;SDS011;13066;52.042;5.648;2024-03-02T10:44:36;6.15;;;1.80;;
25073;SDS011;13066;52.042;5.648;2024-03-02T10:47:05;3.20;;;1.50;;
25073;SDS011;13066;52.042;5.648;2024-03-02T10:49:33;3.05;;;1.27;;
25073;SDS011;13066;52.042;5.648;2024-03-02T10:52:02;3.25;;;1.45;;
25073;SDS011;13066;52.042;5.648;2024-03-02T10:54:31;1.75;;;1.15;;
25073;SDS011;13066;52.042;5.648;2024-03-02T10:57:04;3.05;;;1.73;;
25073;SDS011;13066;52.042;5.648;2024-03-02T10:59:33;3.30;;;1.75;;
25073;SDS011;13066;52.042;5.648;2024-03-02T11:02:03;3.38;;;1.30;;
25073;SDS011;13066;52.042;5.648;2024-03-02T11:04:33;6.65;;;2.20;;
25073;SDS011;13066;52.042;5.648;2024-03-02T11:07:04;2.63;;;1.77;;
25073;SDS011;13066;52.042;5.648;2024-03-02T11:09:33;5.35;;;2.08;;
25073;SDS011;13066;52.042;5.648;2024-03-02T11:12:02;3.72;;;1.80;;
25073;SDS011;13066;52.042;5.648;2024-03-02T11:14:31;4.07;;;1.40;;
25073;SDS011;13066;52.042;5.648;2024-03-02T11:17:01;3.72;;;1.33;;
25073;SDS011;13066;52.042;5.648;2024-03-02T11:19:31;3.70;;;1.35;;
25073;SDS011;13066;52.042;5.648;2024-03-02T11:22:01;3.55;;;1.45;;
25073;SDS011;13066;52.042;5.648;2024-03-02T11:24:33;3.95;;;1.45;;
25073;SDS011;13066;52.042;5.648;2024-03-02T11:27:05;3.67;;;1.30;;
25073;SDS011;13066;52.042;5.648;2024-03-02T11:29:43;4.30;;;2.15;;
25073;SDS011;13066;52.042;5.648;2024-03-02T11:32:13;2.80;;;1.60;;
25073;SDS011;13066;52.042;5.648;2024-03-02T11:34:43;5.93;;;2.20;;
25073;SDS011;13066;52.042;5.648;2024-03-02T11:37:14;5.25;;;1.70;;
25073;SDS011;13066;52.042;5.648;2024-03-02T11:39:44;2.88;;;1.50;;
25073;SDS011;13066;52.042;5.648;2024-03-02T11:42:12;5.00;;;1.35;;
25073;SDS011;13066;52.042;5.648;2024-03-02T11:44:42;2.55;;;1.10;;
25073;SDS011;13066;52.042;5.648;2024-03-02T11:47:12;2.80;;;1.17;;
25073;SDS011;13066;52.042;5.648;2024-03-02T11:49:45;3.20;;;1.17;;
25073;SDS011;13066;52.042;5.648;2024-03-02T11:52:15;2.92;;;1.13;;
25073;SDS011;13066;52.042;5.648;2024-03-02T11:54:45;3.30;;;1.42;;
25073;SDS011;13066;52.042;5.648;2024-03-02T11:57:16;2.03;;;1.30;;
25073;SDS011;13066;52.042;5.648;2024-03-02T11:59:45;2.78;;;1.70;;
25073;SDS011;13066;52.042;5.648;2024-03-02T12:02:17;2.65;;;1.20;;
25073;SDS011;13066;52.042;5.648;2024-03-02T12:04:47;4.65;;;1.33;;
25073;SDS011;13066;52.042;5.648;2024-03-02T12:07:19;3.45;;;1.40;;
25073;SDS011;13066;52.042;5.648;2024-03-02T12:09:49;2.67;;;1.30;;
25073;SDS011;13066;52.042;5.648;2024-03-02T12:12:18;2.33;;;1.08;;
25073;SDS011;13066;52.042;5.648;2024-03-02T12:14:50;3.60;;;1.40;;
25073;SDS011;13066;52.042;5.648;2024-03-02T12:17:19;3.67;;;1.60;;
25073;SDS011;13066;52.042;5.648;2024-03-02T12:19:47;3.90;;;1.55;;
25073;SDS011;13066;52.042;5.648;2024-03-02T12:22:15;5.97;;;1.38;;
25073;SDS011;13066;52.042;5.648;2024-03-02T12:24:45;1.98;;;1.20;;
25073;SDS011;13066;52.042;5.648;2024-03-02T12:27:13;2.92;;;1.30;;
25073;SDS011;13066;52.042;5.648;2024-03-02T12:29:43;4.60;;;1.00;;
25073;SDS011;13066;52.042;5.648;2024-03-02T12:32:11;1.95;;;1.23;;
25073;SDS011;13066;52.042;5.648;2024-03-02T12:34:39;4.03;;;1.30;;
25073;SDS011;13066;52.042;5.648;2024-03-02T12:37:07;15.70;;;1.98;;
25073;SDS011;13066;52.042;5.648;2024-03-02T12:39:35;10.15;;;2.13;;
25073;SDS011;13066;52.042;5.648;2024-03-02T12:42:05;6.57;;;1.65;;
25073;SDS011;13066;52.042;5.648;2024-03-02T12:44:33;3.83;;;1.13;;
25073;SDS011;13066;52.042;5.648;2024-03-02T12:47:01;4.25;;;1.60;;
25073;SDS011;13066;52.042;5.648;2024-03-02T12:49:30;3.50;;;1.23;;
25073;SDS011;13066;52.042;5.648;2024-03-02T12:51:58;1.92;;;1.10;;
25073;SDS011;13066;52.042;5.648;2024-03-02T12:54:27;3.83;;;1.50;;
25073;SDS011;13066;52.042;5.648;2024-03-02T12:56:56;3.78;;;1.20;;
25073;SDS011;13066;52.042;5.648;2024-03-02T12:59:25;3.60;;;1.48;;
25073;SDS011;13066;52.042;5.648;2024-03-02T13:01:54;3.10;;;1.27;;
25073;SDS011;13066;52.042;5.648;2024-03-02T13:04:25;2.22;;;1.17;;
25073;SDS011;13066;52.042;5.648;2024-03-02T13:06:53;2.55;;;1.13;;
25073;SDS011;13066;52.042;5.648;2024-03-02T13:09:23;2.72;;;1.35;;
25073;SDS011;13066;52.042;5.648;2024-03-02T13:11:51;2.25;;;1.10;;
25073;SDS011;13066;52.042;5.648;2024-03-02T13:14:21;3.97;;;1.30;;
25073;SDS011;13066;52.042;5.648;2024-03-02T13:16:52;4.13;;;1.63;;
25073;SDS011;13066;52.042;5.648;2024-03-02T13:19:20;4.30;;;1.42;;
25073;SDS011;13066;52.042;5.648;2024-03-02T13:21:48;4.25;;;1.70;;
25073;SDS011;13066;52.042;5.648;2024-03-02T13:24:18;3.38;;;1.52;;
25073;SDS011;13066;52.042;5.648;2024-03-02T13:26:46;2.72;;;1.40;;
25073;SDS011;13066;52.042;5.648;2024-03-02T13:29:14;2.83;;;1.23;;
25073;SDS011;13066;52.042;5.648;2024-03-02T13:31:42;4.28;;;1.58;;
25073;SDS011;13066;52.042;5.648;2024-03-02T13:34:11;3.17;;;1.40;;
25073;SDS011;13066;52.042;5.648;2024-03-02T13:36:41;2.70;;;1.30;;
25073;SDS011;13066;52.042;5.648;2024-03-02T13:39:09;4.28;;;1.40;;
25073;SDS011;13066;52.042;5.648;2024-03-02T13:41:37;2.95;;;1.20;;
25073;SDS011;13066;52.042;5.648;2024-03-02T13:44:05;2.72;;;1.10;;
25073;SDS011;13066;52.042;5.648;2024-03-02T13:46:34;3.90;;;1.90;;
25073;SDS011;13066;52.042;5.648;2024-03-02T13:49:02;2.17;;;1.48;;
25073;SDS011;13066;52.042;5.648;2024-03-02T13:51:32;2.45;;;1.23;;
25073;SDS011;13066;52.042;5.648;2024-03-02T13:54:00;2.75;;;1.55;;
25073;SDS011;13066;52.042;5.648;2024-03-02T13:56:29;3.47;;;1.50;;
25073;SDS011;13066;52.042;5.648;2024-03-02T13:58:58;2.97;;;1.60;;
25073;SDS011;13066;52.042;5.648;2024-03-02T14:01:26;3.17;;;1.42;;
25073;SDS011;13066;52.042;5.648;2024-03-02T14:03:55;2.33;;;1.30;;
25073;SDS011;13066;52.042;5.648;2024-03-02T14:06:23;2.45;;;1.33;;
25073;SDS011;13066;52.042;5.648;2024-03-02T14:08:54;1.50;;;1.10;;
25073;SDS011;13066;52.042;5.648;2024-03-02T14:11:22;3.15;;;1.73;;
25073;SDS011;13066;52.042;5.648;2024-03-02T14:13:50;3.65;;;1.23;;
25073;SDS011;13066;52.042;5.648;2024-03-02T14:16:21;4.53;;;1.58;;
25073;SDS011;13066;52.042;5.648;2024-03-02T14:18:49;3.20;;;1.40;;
25073;SDS011;13066;52.042;5.648;2024-03-02T14:21:18;2.92;;;1.20;;
25073;SDS011;13066;52.042;5.648;2024-03-02T14:23:47;3.17;;;1.33;;
25073;SDS011;13066;52.042;5.648;2024-03-02T14:26:16;3.28;;;1.38;;
25073;SDS011;13066;52.042;5.648;2024-03-02T14:28:44;5.15;;;1.50;;
25073;SDS011;13066;52.042;5.648;2024-03-02T14:31:17;2.10;;;1.13;;
25073;SDS011;13066;52.042;5.648;2024-03-02T14:33:46;2.92;;;1.20;;
25073;SDS011;13066;52.042;5.648;2024-03-02T14:36:14;2.30;;;1.27;;
25073;SDS011;13066;52.042;5.648;2024-03-02T14:38:42;3.40;;;1.30;;
25073;SDS011;13066;52.042;5.648;2024-03-02T14:41:11;2.63;;;1.33;;
25073;SDS011;13066;52.042;5.648;2024-03-02T14:43:40;2.78;;;1.25;;
25073;SDS011;13066;52.042;5.648;2024-03-02T14:46:09;2.88;;;1.08;;
25073;SDS011;13066;52.042;5.648;2024-03-02T14:48:37;1.75;;;1.00;;
25073;SDS011;13066;52.042;5.648;2024-03-02T14:51:05;4.35;;;1.50;;
25073;SDS011;13066;52.042;5.648;2024-03-02T14:53:33;2.90;;;1.35;;
25073;SDS011;13066;52.042;5.648;2024-03-02T14:56:02;4.30;;;1.25;;
25073;SDS011;13066;52.042;5.648;2024-03-02T14:58:31;1.70;;;1.00;;
25073;SDS011;13066;52.042;5.648;2024-03-02T15:01:00;2.85;;;1.35;;
25073;SDS011;13066;52.042;5.648;2024-03-02T15:03:28;3.75;;;1.25;;
25073;SDS011;13066;52.042;5.648;2024-03-02T15:05:57;2.70;;;1.55;;